Boscombe Down, United Kingdom

3:07 PM BST on May 23, 2015 (GMT +0100)
Salisbury Laverstock | | Change Station
CLOSE
Current Station
Personal Weather Station
Location: Salisbury, WILTSHIRE
Elevation: 246 ft
Nearby Weather Stations

Elev 246 ft 51.07 °N, 1.77 °W | Updated 6 minutes ago

Scattered Clouds
Scattered Clouds
69.1 °F
Feels Like 69.1 °F
N
1.0
Wind Variable Wind from East
Gusts 7.0 mph

Today
High -- | Low -- °F
--% Chance of Precip.
Yesterday
High -- | Low -- °F
Precip. -- in
5:06 AM 9:01 PM
Waxing Crescent, 30% visible
Pressure 30.21 in
Visibility 6.2 miles
Clouds Scattered Clouds 4100 ft
Dew Point 54 °F
Humidity 58%
Rainfall 0.00 in
Snow Depth Not available.
UV 6 out of 12
Pollen Not available.
Air Quality Not available.
Flu Activity Not available.
METAR EGHI 231350Z 02007KT 340V060 9999 SCT041 19/11 Q1023

More Conditions Fewer Conditions

Pressure 30.21 in
Visibility 6.2 miles
Clouds Scattered Clouds 4100 ft
Dew Point 54 °F
Humidity 58%
Rainfall 0.00 in
Snow Depth Not available.
UV 6 out of 12
Pollen Not available.
Air Quality Not available.
Flu Activity Not available.
METAR EGHI 231350Z 02007KT 340V060 9999 SCT041 19/11 Q1023

More Conditions Fewer Conditions

10-Day Weather Forecast

Almanac

Astronomy

May. 23, 2015 Rise Set
Actual Time
Civil Twilight
Nautical Twilight
Astronomical Twilight
Moon
Length of Visible Light
Length of Day
Tomorrow will be .
, % of the Moon is Illuminated

Today's Extremes

Country Highs Country Lows

Community

WunderPhotos

Upload Photos

1,823,469 photos uploaded!

WunderBlogs® & News

Nearby

Air Quality

  Air Quality AQ Index Pollutant
Not available.

Snow Depth

Station Depth Elevation

Earthquake Activity

City Distance Mag. Time & Date
Minimum magnitude displayed is 2.5.

Coastal Water Temperatures

Place Temperature

Stations

Nearby Weather Stations

Station Location Temp. Windchill Dew Point Humidity Wind Precip. Elev Updated Type